Etusivu
METAR-TAF:

METAR-TAF

Lentoasemat :

Medford, Oregon, Yhdysvallat

Leveyspiiri: 42-22-52N, Pituuspiiri: 122-52-20W, korkeus merenpinnasta: 405 m

Tämänhetkinen sää

Tämä raportti tehtiin 49 minuuttia sitten, kello 05.53 UTC
tyyntä
Lämpötila 21°C
Kosteus 30%
Ilmanpaine 1018 hPa
Näkyvyys: 16.1 km
selkeää

METAR: KMFR 300553Z AUTO 00000KT 10SM CLR 21/03 A3007 RMK AO2 SLP172 T02110033 10367 20206 51022

Aika: 23:42 (06:42 UTC)

Sääennuste

Tämä raportti tehtiin 1 tunti ja 22 minuuttia sitten, kello 05.20 UTC
Ennuste voimassa 30. päivästä klo 06 UTC - 01. päivään klo 06 UTC
Tuuli 3 kn eri suunnista
Näkyvyys: 9.7 km
selkeää
savua
From 30. päivästä klo 2200 UTC
Tuuli 4 kn luoteesta
Näkyvyys: 8.0 km
selkeää
savua

TAF: KMFR 300520Z 3006/0106 VRB03KT 6SM FU SKC FM302200 32004KT 5SM FU SKC

Säähavainnot ja -ennusteet yli 4000 lentoasemalta (METAR- ja TAF-raportit).

Käytössä olevat sääasemat on merkitty karttaan keltaisilla ja punaisilla pisteillä.

Aseta hiiri pisteen päälle nähdäksesi sääaseman nimen.

Klikkaa sitten nähdäksesi säähavainnot ja -ennusteet.

Kartan vaihtaminen: klikkaa mustalla rastilla varustettuja vihreitä pisteitä, niin voit zoomata sisään; viivalla varustettua vihreää pistettä, niin voit zoomata ulos tai vihreitä nuolia, niin pääset viereisille kartoille.


METAR-TAF: